Time;durP1;ratioP1;P1;durP2;ratioP2;P2;SDS_P1;SDS_P2;PMS_P1;PMS_P2;Temp;Humidity;BMP_temperature;BMP_pressure;BME280_temperature;BME280_humidity;BME280_pressure;Samples;Min_cycle;Max_cycle;Signal;HPM_P1;HPM_P2
2023/10/27 00:02:23;;;;;;;2.17;1.08;;;18.30;72.70;;;;;;5050403;28;20033;-78
2023/10/27 00:04:49;;;;;;;1.25;0.77;;;18.30;72.70;;;;;;5062565;28;20052;-78
2023/10/27 00:07:14;;;;;;;1.48;0.90;;;18.30;72.60;;;;;;5064068;28;20033;-78
2023/10/27 00:09:40;;;;;;;1.98;0.90;;;18.30;72.60;;;;;;5062866;28;20037;-78
2023/10/27 00:12:06;;;;;;;1.17;1.08;;;18.30;72.50;;;;;;5064161;28;20557;-78
2023/10/27 00:14:33;;;;;;;1.05;0.95;;;18.30;72.70;;;;;;5063610;28;20036;-78
2023/10/27 00:16:59;;;;;;;1.10;0.80;;;18.30;72.60;;;;;;5059332;28;20505;-78
2023/10/27 00:19:24;;;;;;;1.60;1.38;;;18.30;72.60;;;;;;5060187;28;20119;-78
2023/10/27 00:21:50;;;;;;;1.10;1.00;;;18.30;72.70;;;;;;5091643;28;20213;-78
2023/10/27 00:24:15;;;;;;;1.23;1.13;;;18.30;72.80;;;;;;5066548;28;20037;-78
2023/10/27 00:26:41;;;;;;;1.13;0.90;;;18.30;72.70;;;;;;5063629;28;20510;-78
2023/10/27 00:29:07;;;;;;;1.40;1.20;;;18.30;72.70;;;;;;5064649;28;20032;-77
2023/10/27 00:31:32;;;;;;;1.25;0.98;;;18.30;72.60;;;;;;5064023;28;20041;-77
2023/10/27 00:33:58;;;;;;;1.20;0.90;;;18.30;72.60;;;;;;5096277;28;20055;-78
2023/10/27 00:36:23;;;;;;;1.00;0.90;;;18.30;72.70;;;;;;5065681;28;20093;-78
2023/10/27 00:38:50;;;;;;;1.13;1.02;;;18.30;72.70;;;;;;5064533;28;20048;-78
2023/10/27 00:41:16;;;;;;;1.13;0.77;;;18.30;72.50;;;;;;5046947;28;20044;-78
2023/10/27 00:43:42;;;;;;;1.65;1.02;;;18.30;72.70;;;;;;5062305;28;20059;-78
2023/10/27 00:46:08;;;;;;;1.17;0.90;;;18.30;72.70;;;;;;5063248;28;20055;-78
2023/10/27 00:48:33;;;;;;;1.30;0.88;;;18.30;72.70;;;;;;5028994;28;20035;-78
2023/10/27 00:51:00;;;;;;;1.13;1.00;;;18.30;72.70;;;;;;5098959;27;20045;-78
2023/10/27 00:53:26;;;;;;;1.13;1.00;;;18.30;72.70;;;;;;5079860;28;20574;-78
2023/10/27 00:55:51;;;;;;;1.48;0.75;;;18.30;72.60;;;;;;5030496;28;20127;-78
2023/10/27 00:58:17;;;;;;;1.23;0.82;;;18.30;72.50;;;;;;5060124;28;20037;-78
2023/10/27 01:00:42;;;;;;;1.08;0.88;;;18.30;72.50;;;;;;5041581;28;20079;-78
2023/10/27 01:03:08;;;;;;;1.88;1.17;;;18.30;72.50;;;;;;5066978;28;20414;-78
2023/10/27 01:05:33;;;;;;;1.10;0.95;;;18.30;72.60;;;;;;5061377;28;20017;-77
2023/10/27 01:08:00;;;;;;;0.90;0.73;;;18.30;72.50;;;;;;5060046;28;20033;-78
2023/10/27 01:10:26;;;;;;;1.50;0.95;;;18.30;72.50;;;;;;5061794;28;20047;-78
2023/10/27 01:12:51;;;;;;;1.23;1.02;;;18.30;72.50;;;;;;5066401;28;20068;-78
2023/10/27 01:15:18;;;;;;;1.02;0.85;;;18.30;72.50;;;;;;5063611;28;20591;-78
2023/10/27 01:17:43;;;;;;;0.82;0.68;;;18.30;72.50;;;;;;5062411;28;20131;-78
2023/10/27 01:20:09;;;;;;;1.13;0.80;;;18.30;72.50;;;;;;5056757;28;20179;-78
2023/10/27 01:22:47;;;;;;;0.60;0.60;;;18.30;72.40;;;;;;5059997;28;20063;-77
2023/10/27 01:25:14;;;;;;;1.40;0.75;;;18.30;72.40;;;;;;5059050;28;20093;-78
2023/10/27 01:27:39;;;;;;;0.75;0.63;;;18.30;72.40;;;;;;5060933;28;20120;-78
2023/10/27 01:30:06;;;;;;;1.00;0.77;;;18.30;72.40;;;;;;5062365;28;20128;-78
2023/10/27 01:32:31;;;;;;;0.73;0.65;;;18.30;72.40;;;;;;5063299;28;20036;-78
2023/10/27 01:34:57;;;;;;;0.57;0.57;;;18.30;73.20;;;;;;5061727;28;20043;-78
2023/10/27 01:37:23;;;;;;;0.85;0.80;;;18.30;72.40;;;;;;5060157;28;20039;-78
2023/10/27 01:39:49;;;;;;;0.70;0.60;;;18.30;72.40;;;;;;5060039;28;20037;-78
2023/10/27 01:42:15;;;;;;;0.63;0.55;;;18.30;72.40;;;;;;5064725;28;20048;-78
2023/10/27 01:44:40;;;;;;;0.90;0.90;;;18.30;72.40;;;;;;5059324;28;20048;-78
2023/10/27 01:47:06;;;;;;;0.65;0.63;;;18.30;72.30;;;;;;5059410;28;20087;-78
2023/10/27 01:49:31;;;;;;;0.70;0.65;;;18.30;72.40;;;;;;5061856;28;20028;-78
2023/10/27 01:51:57;;;;;;;1.05;0.68;;;18.30;72.40;;;;;;5058572;28;20648;-78
2023/10/27 01:54:23;;;;;;;0.80;0.68;;;18.30;72.30;;;;;;5062736;28;20041;-78
2023/10/27 01:56:48;;;;;;;1.05;0.70;;;18.30;72.30;;;;;;5060380;28;21938;-78
2023/10/27 01:59:14;;;;;;;0.93;0.73;;;18.30;72.30;;;;;;5061009;28;20036;-78
2023/10/27 02:01:39;;;;;;;0.90;0.80;;;18.30;72.20;;;;;;5063563;28;20039;-78
2023/10/27 02:04:05;;;;;;;0.60;0.50;;;18.30;72.20;;;;;;5064595;28;20063;-78
2023/10/27 02:06:30;;;;;;;0.47;0.47;;;18.30;72.30;;;;;;5094907;28;20044;-78
2023/10/27 02:08:56;;;;;;;0.77;0.75;;;18.20;72.20;;;;;;5094068;28;20044;-77
2023/10/27 02:11:23;;;;;;;0.85;0.68;;;18.20;72.10;;;;;;5064669;28;20048;-78
2023/10/27 02:13:49;;;;;;;0.43;0.43;;;18.20;72.20;;;;;;5062015;28;20040;-78
2023/10/27 02:16:14;;;;;;;0.50;0.50;;;18.30;72.20;;;;;;5062773;28;20509;-78
2023/10/27 02:18:40;;;;;;;0.50;0.50;;;18.30;72.30;;;;;;5061224;28;20049;-78
2023/10/27 02:21:05;;;;;;;0.45;0.40;;;18.30;72.30;;;;;;5065081;28;20125;-78
2023/10/27 02:23:31;;;;;;;2.20;1.35;;;18.30;72.20;;;;;;5061579;28;20056;-78
2023/10/27 02:25:56;;;;;;;0.73;0.73;;;18.20;72.10;;;;;;5060294;28;20045;-78
2023/10/27 02:28:22;;;;;;;0.93;0.50;;;18.20;72.10;;;;;;5061327;28;20517;-78
2023/10/27 02:30:47;;;;;;;0.70;0.40;;;18.20;73.00;;;;;;5062337;28;20063;-78
2023/10/27 02:33:13;;;;;;;0.90;0.77;;;18.20;72.20;;;;;;5065587;28;20166;-78
2023/10/27 02:35:39;;;;;;;0.77;0.68;;;18.20;72.10;;;;;;5058026;28;20095;-78
2023/10/27 02:38:04;;;;;;;0.50;0.50;;;18.20;72.10;;;;;;5060363;28;20037;-78
2023/10/27 02:40:31;;;;;;;0.65;0.65;;;18.20;72.90;;;;;;5059758;28;20132;-78
2023/10/27 02:42:56;;;;;;;0.60;0.50;;;18.20;72.10;;;;;;5061297;28;20072;-78
2023/10/27 02:45:22;;;;;;;0.80;0.70;;;18.20;72.10;;;;;;5063313;28;20068;-78
2023/10/27 02:47:47;;;;;;;0.80;0.52;;;18.20;72.10;;;;;;5060451;28;20045;-78
2023/10/27 02:50:13;;;;;;;0.60;0.50;;;18.20;72.10;;;;;;5061462;28;20056;-78
2023/10/27 02:52:39;;;;;;;1.02;0.80;;;18.20;72.10;;;;;;5046172;28;20040;-77
2023/10/27 02:55:05;;;;;;;0.73;0.73;;;18.20;72.00;;;;;;5060682;28;20098;-78
2023/10/27 02:57:30;;;;;;;1.00;0.75;;;18.20;72.10;;;;;;5062465;28;20043;-78
2023/10/27 02:59:57;;;;;;;0.90;0.63;;;18.20;72.00;;;;;;5063527;28;20041;-78
2023/10/27 03:02:23;;;;;;;0.90;0.50;;;18.20;72.00;;;;;;5064657;28;20111;-78
2023/10/27 03:04:49;;;;;;;0.95;0.70;;;18.20;72.00;;;;;;5065799;28;20051;-77
2023/10/27 03:07:16;;;;;;;0.80;0.50;;;18.20;72.10;;;;;;5065245;28;20040;-78
2023/10/27 03:09:41;;;;;;;0.50;0.45;;;18.20;72.10;;;;;;5063695;28;20045;-78
2023/10/27 03:12:07;;;;;;;0.68;0.50;;;18.20;72.00;;;;;;5067813;28;20135;-78
2023/10/27 03:14:33;;;;;;;0.50;0.50;;;18.20;72.00;;;;;;5065660;28;20063;-78
2023/10/27 03:16:58;;;;;;;0.70;0.45;;;18.20;72.00;;;;;;5062597;28;20048;-78
2023/10/27 03:19:24;;;;;;;0.63;0.57;;;18.20;72.00;;;;;;5063697;28;20485;-78
2023/10/27 03:21:49;;;;;;;0.60;0.57;;;18.20;72.00;;;;;;5063462;28;20048;-78
2023/10/27 03:24:15;;;;;;;0.50;0.47;;;18.20;72.00;;;;;;5098289;28;20064;-78
2023/10/27 03:26:41;;;;;;;0.60;0.50;;;18.20;72.00;;;;;;5065115;28;20510;-77
2023/10/27 03:29:07;;;;;;;0.68;0.50;;;18.20;72.00;;;;;;5061343;28;20044;-78
2023/10/27 03:31:34;;;;;;;0.60;0.40;;;18.20;72.00;;;;;;5065373;28;20041;-78
2023/10/27 03:34:00;;;;;;;0.50;0.40;;;18.20;71.90;;;;;;5032989;28;20427;-78
2023/10/27 03:36:25;;;;;;;1.05;0.43;;;18.20;71.90;;;;;;5097841;28;20052;-78
2023/10/27 03:38:51;;;;;;;0.30;0.30;;;18.20;71.90;;;;;;5095387;28;20398;-78
2023/10/27 03:41:16;;;;;;;0.70;0.55;;;18.20;72.00;;;;;;5065071;28;20124;-78
2023/10/27 03:43:42;;;;;;;1.20;0.60;;;18.20;72.00;;;;;;5064848;28;20037;-77
2023/10/27 03:46:07;;;;;;;0.50;0.40;;;18.20;71.90;;;;;;5061408;28;20178;-78
2023/10/27 03:48:34;;;;;;;0.50;0.50;;;18.20;72.00;;;;;;5062957;28;20110;-78
2023/10/27 03:51:05;;;;;;;0.50;0.50;;;18.20;72.00;;;;;;5067006;28;20037;-78
2023/10/27 03:53:33;;;;;;;0.40;0.40;;;18.20;71.90;;;;;;5062781;28;20123;-78
2023/10/27 03:55:59;;;;;;;0.32;0.30;;;18.20;71.90;;;;;;5061923;28;20265;-78
2023/10/27 03:58:25;;;;;;;0.60;0.40;;;18.20;71.90;;;;;;5061357;28;20139;-77
2023/10/27 04:00:50;;;;;;;0.45;0.35;;;18.20;71.90;;;;;;5061798;28;20179;-78
2023/10/27 04:03:16;;;;;;;0.50;0.50;;;18.20;71.90;;;;;;5100417;28;20052;-78
2023/10/27 04:05:41;;;;;;;0.40;0.40;;;18.20;72.00;;;;;;5065903;28;20723;-78
2023/10/27 04:08:07;;;;;;;0.43;0.32;;;18.20;72.00;;;;;;5049472;28;20110;-78
2023/10/27 04:10:34;;;;;;;0.45;0.45;;;18.20;72.00;;;;;;5059269;28;20123;-78
2023/10/27 04:13:00;;;;;;;0.70;0.47;;;18.20;71.90;;;;;;5054481;28;20048;-78
2023/10/27 04:15:26;;;;;;;0.32;0.32;;;18.20;71.90;;;;;;5065592;28;20078;-78
2023/10/27 04:17:51;;;;;;;0.47;0.43;;;18.20;71.90;;;;;;5062072;28;20087;-78
2023/10/27 04:20:17;;;;;;;0.45;0.40;;;18.20;71.90;;;;;;5061878;28;20510;-78
2023/10/27 04:22:43;;;;;;;0.70;0.40;;;18.20;71.90;;;;;;5065055;28;20085;-78
2023/10/27 04:25:10;;;;;;;0.55;0.40;;;18.20;71.90;;;;;;5058745;28;20071;-78
2023/10/27 04:27:36;;;;;;;0.45;0.30;;;18.20;71.80;;;;;;5063157;28;20475;-78
2023/10/27 04:30:04;;;;;;;1.08;0.40;;;18.20;71.90;;;;;;5064101;28;20528;-78
2023/10/27 04:32:29;;;;;;;0.38;0.32;;;18.20;71.90;;;;;;5060850;28;20473;-78
2023/10/27 04:34:56;;;;;;;0.70;0.50;;;18.20;71.90;;;;;;5062987;28;20119;-78
2023/10/27 04:37:21;;;;;;;0.40;0.40;;;18.20;72.60;;;;;;5055559;28;20028;-78
2023/10/27 04:39:47;;;;;;;0.32;0.32;;;18.20;71.80;;;;;;5092213;28;20041;-78
2023/10/27 04:42:13;;;;;;;0.25;0.20;;;18.10;71.80;;;;;;5067978;28;20052;-78
2023/10/27 04:44:38;;;;;;;0.40;0.40;;;18.20;71.80;;;;;;5064513;28;20063;-78
2023/10/27 04:47:04;;;;;;;0.20;0.20;;;18.10;72.60;;;;;;5063989;28;20052;-78
2023/10/27 04:49:30;;;;;;;0.50;0.32;;;18.10;71.70;;;;;;5063226;28;20056;-79
2023/10/27 04:51:55;;;;;;;0.28;0.20;;;18.20;71.80;;;;;;5061916;28;20044;-78
2023/10/27 04:54:21;;;;;;;0.80;0.75;;;18.20;71.70;;;;;;5064445;28;20074;-78
2023/10/27 04:56:47;;;;;;;0.50;0.40;;;18.10;71.70;;;;;;5061164;28;20636;-77
2023/10/27 04:59:13;;;;;;;0.35;0.32;;;18.20;71.80;;;;;;5061433;28;20044;-78
2023/10/27 05:01:38;;;;;;;0.57;0.57;;;18.10;71.70;;;;;;5064373;28;20044;-78
2023/10/27 05:04:04;;;;;;;0.40;0.40;;;18.10;71.80;;;;;;5062592;28;20036;-78
2023/10/27 05:06:30;;;;;;;0.43;0.40;;;18.10;71.70;;;;;;5060570;28;20032;-78
2023/10/27 05:08:56;;;;;;;0.38;0.38;;;18.10;71.80;;;;;;5061949;28;20406;-78
2023/10/27 05:11:22;;;;;;;0.40;0.40;;;18.20;71.70;;;;;;5062484;28;20703;-78
2023/10/27 05:13:48;;;;;;;0.50;0.43;;;18.10;71.70;;;;;;5061520;28;20109;-77
2023/10/27 05:16:13;;;;;;;0.47;0.32;;;18.10;71.60;;;;;;5061549;28;20040;-78
2023/10/27 05:18:39;;;;;;;0.30;0.30;;;18.10;71.70;;;;;;5060804;28;20099;-78
2023/10/27 05:21:04;;;;;;;0.40;0.40;;;18.10;71.80;;;;;;5064748;28;20044;-78
2023/10/27 05:23:30;;;;;;;0.28;0.28;;;18.10;71.70;;;;;;5042174;28;20033;-78
2023/10/27 05:25:56;;;;;;;0.50;0.40;;;18.10;71.60;;;;;;5061869;28;20044;-78
2023/10/27 05:28:21;;;;;;;0.60;0.50;;;18.10;71.70;;;;;;5061617;28;20043;-78
2023/10/27 05:30:50;;;;;;;0.30;0.30;;;18.10;71.60;;;;;;5061084;28;20041;-76
2023/10/27 05:33:16;;;;;;;0.38;0.35;;;18.10;71.60;;;;;;5064454;28;20047;-78
2023/10/27 05:35:41;;;;;;;0.30;0.30;;;18.10;71.70;;;;;;5060211;28;20386;-78
2023/10/27 05:38:08;;;;;;;0.70;0.50;;;18.10;71.70;;;;;;5060780;28;20037;-78
2023/10/27 05:40:33;;;;;;;0.30;0.30;;;18.10;71.70;;;;;;5063818;28;20104;-78
2023/10/27 05:42:59;;;;;;;0.30;0.30;;;18.10;72.50;;;;;;5090737;28;20068;-77
2023/10/27 05:45:24;;;;;;;0.38;0.38;;;18.10;71.70;;;;;;5062280;28;20066;-78
2023/10/27 05:47:50;;;;;;;0.30;0.30;;;18.10;71.60;;;;;;5091904;28;20578;-78
2023/10/27 05:50:16;;;;;;;0.20;0.20;;;18.10;71.60;;;;;;5060974;28;20047;-78
2023/10/27 05:52:41;;;;;;;0.50;0.40;;;18.10;71.60;;;;;;5057705;28;20047;-78
2023/10/27 05:55:07;;;;;;;0.40;0.40;;;18.10;71.50;;;;;;5060162;28;20124;-78
2023/10/27 05:57:33;;;;;;;0.25;0.20;;;18.10;71.60;;;;;;5063340;28;20054;-78
2023/10/27 05:59:59;;;;;;;0.30;0.20;;;18.10;71.60;;;;;;5063146;28;20431;-78
2023/10/27 06:02:24;;;;;;;0.60;0.22;;;18.10;71.60;;;;;;5063050;28;20474;-78
2023/10/27 06:04:50;;;;;;;0.52;0.30;;;18.10;71.50;;;;;;5061186;28;20040;-72
2023/10/27 06:07:17;;;;;;;0.40;0.40;;;18.10;71.60;;;;;;5061619;28;20055;-71
2023/10/27 06:09:43;;;;;;;0.20;0.20;;;18.10;71.70;;;;;;5066759;28;20028;-71
2023/10/27 06:12:11;;;;;;;0.50;0.47;;;18.10;71.60;;;;;;5062724;28;20045;-71
2023/10/27 06:14:43;;;;;;;0.57;0.40;;;18.10;71.50;;;;;;5064181;28;20113;-71
2023/10/27 06:17:10;;;;;;;0.50;0.47;;;18.10;71.60;;;;;;5058946;28;21916;-71
2023/10/27 06:19:36;;;;;;;1.00;0.25;;;18.10;71.50;;;;;;5061611;28;20140;-71
2023/10/27 06:22:02;;;;;;;0.70;0.40;;;18.10;71.60;;;;;;5061100;28;20083;-71
2023/10/27 06:24:28;;;;;;;0.40;0.30;;;18.10;71.50;;;;;;5093170;28;20032;-72
2023/10/27 06:26:53;;;;;;;0.80;0.43;;;18.10;71.50;;;;;;5059315;28;20048;-71
2023/10/27 06:29:19;;;;;;;0.50;0.30;;;18.10;71.50;;;;;;5046621;28;20036;-71
2023/10/27 06:31:45;;;;;;;0.30;0.30;;;18.10;71.50;;;;;;5063429;28;20052;-71
2023/10/27 06:34:10;;;;;;;0.43;0.30;;;18.10;71.50;;;;;;5066045;28;21784;-71
2023/10/27 06:36:36;;;;;;;0.68;0.30;;;18.10;71.50;;;;;;5063711;28;20975;-71
2023/10/27 06:39:01;;;;;;;0.47;0.32;;;18.10;71.50;;;;;;5050988;28;20071;-72
2023/10/27 06:41:27;;;;;;;0.55;0.40;;;18.10;71.80;;;;;;5066473;28;20529;-72
2023/10/27 06:43:53;;;;;;;0.60;0.30;;;18.10;71.70;;;;;;5064513;28;20037;-72
2023/10/27 06:46:18;;;;;;;1.02;0.50;;;18.10;71.70;;;;;;5063463;28;20078;-72
2023/10/27 06:48:44;;;;;;;0.40;0.40;;;18.10;71.80;;;;;;5067605;28;20040;-71
2023/10/27 06:51:09;;;;;;;1.70;0.40;;;18.10;71.90;;;;;;5072213;28;20037;-72
2023/10/27 06:53:35;;;;;;;0.45;0.40;;;18.10;71.90;;;;;;5062906;28;20108;-72
2023/10/27 06:56:01;;;;;;;1.85;0.35;;;18.10;71.90;;;;;;5063792;28;20036;-72
2023/10/27 06:58:26;;;;;;;0.70;0.22;;;18.10;71.90;;;;;;5067938;28;20039;-72
2023/10/27 07:00:52;;;;;;;0.80;0.30;;;18.10;71.90;;;;;;5081864;28;20072;-72
2023/10/27 07:03:18;;;;;;;0.32;0.30;;;18.10;71.90;;;;;;5066285;28;20056;-72
2023/10/27 07:05:44;;;;;;;0.57;0.40;;;18.10;71.90;;;;;;5065160;28;20036;-72
2023/10/27 07:08:10;;;;;;;0.65;0.50;;;18.10;71.90;;;;;;5064399;28;20044;-72
2023/10/27 07:10:36;;;;;;;1.38;0.30;;;18.10;71.90;;;;;;5063773;28;20044;-72
2023/10/27 07:13:01;;;;;;;0.63;0.20;;;18.10;71.90;;;;;;5060978;28;20451;-72
2023/10/27 07:15:27;;;;;;;0.40;0.30;;;18.10;71.90;;;;;;5049251;28;20055;-72
2023/10/27 07:17:52;;;;;;;0.40;0.20;;;18.10;71.90;;;;;;5098949;28;20036;-71
2023/10/27 07:20:18;;;;;;;0.75;0.60;;;18.10;71.90;;;;;;5064727;28;20098;-72
2023/10/27 07:22:43;;;;;;;1.60;0.40;;;18.10;71.80;;;;;;5062313;28;20522;-72
2023/10/27 07:25:09;;;;;;;1.77;0.47;;;18.10;71.80;;;;;;5063642;28;20105;-72
2023/10/27 07:27:35;;;;;;;1.20;0.50;;;18.10;71.80;;;;;;5065150;28;20044;-72
2023/10/27 07:30:00;;;;;;;0.85;0.40;;;18.10;71.80;;;;;;5063505;28;20520;-72
2023/10/27 07:32:26;;;;;;;0.93;0.20;;;18.10;71.80;;;;;;5062792;28;20044;-72
2023/10/27 07:34:52;;;;;;;0.85;0.50;;;18.10;71.70;;;;;;5065846;28;20467;-72
2023/10/27 07:37:19;;;;;;;0.65;0.30;;;18.10;71.70;;;;;;5064525;28;20035;-72
2023/10/27 07:39:45;;;;;;;0.30;0.30;;;18.10;71.60;;;;;;5064938;28;20076;-72
2023/10/27 07:42:13;;;;;;;0.22;0.20;;;18.10;71.70;;;;;;5065100;28;20487;-72
2023/10/27 07:44:39;;;;;;;0.60;0.30;;;18.10;71.70;;;;;;5063272;28;20506;-72
2023/10/27 07:47:05;;;;;;;0.50;0.38;;;18.10;71.70;;;;;;5065662;28;20048;-71
2023/10/27 07:49:30;;;;;;;0.30;0.20;;;18.10;71.70;;;;;;5061822;28;20024;-72
2023/10/27 07:51:56;;;;;;;0.60;0.40;;;18.10;71.70;;;;;;5065822;28;20399;-72
2023/10/27 07:54:21;;;;;;;0.50;0.40;;;18.10;71.70;;;;;;5097024;28;20041;-72
2023/10/27 07:56:47;;;;;;;0.55;0.20;;;18.10;71.60;;;;;;5065616;28;20147;-72
2023/10/27 07:59:14;;;;;;;0.40;0.32;;;18.10;71.60;;;;;;5062838;28;20457;-72
2023/10/27 08:01:39;;;;;;;0.52;0.40;;;18.10;71.60;;;;;;5059768;28;20470;-71
2023/10/27 08:04:06;;;;;;;0.28;0.25;;;18.10;71.60;;;;;;5064105;28;20039;-72
2023/10/27 08:06:32;;;;;;;0.30;0.30;;;18.10;71.70;;;;;;5064137;28;20052;-72
2023/10/27 08:08:58;;;;;;;0.70;0.38;;;18.10;71.60;;;;;;5062278;28;20037;-72
2023/10/27 08:11:24;;;;;;;0.50;0.30;;;18.10;71.50;;;;;;5064757;28;20052;-72
2023/10/27 08:13:50;;;;;;;0.30;0.28;;;18.10;71.50;;;;;;5064491;28;20048;-72
2023/10/27 08:16:15;;;;;;;1.42;0.30;;;18.10;71.50;;;;;;5064857;28;20451;-72
2023/10/27 08:18:41;;;;;;;0.50;0.50;;;18.10;71.50;;;;;;5062719;28;20036;-72
2023/10/27 08:21:06;;;;;;;0.65;0.30;;;18.10;71.60;;;;;;5098517;28;20040;-72
2023/10/27 08:23:32;;;;;;;0.50;0.32;;;18.10;71.60;;;;;;5062903;28;20060;-72
2023/10/27 08:25:57;;;;;;;0.77;0.50;;;18.10;71.50;;;;;;5063934;28;20025;-72
2023/10/27 08:28:24;;;;;;;0.55;0.40;;;18.10;71.60;;;;;;5061674;28;20068;-72
2023/10/27 08:30:49;;;;;;;0.60;0.50;;;18.10;71.50;;;;;;5080254;28;20476;-72
2023/10/27 08:33:15;;;;;;;0.30;0.30;;;18.10;71.40;;;;;;5066518;28;20040;-71
2023/10/27 08:35:41;;;;;;;0.38;0.30;;;18.10;71.70;;;;;;5064143;28;20033;-71
2023/10/27 08:38:06;;;;;;;0.47;0.30;;;18.10;71.50;;;;;;5060398;28;20032;-72
2023/10/27 08:40:32;;;;;;;0.60;0.30;;;18.10;71.50;;;;;;5064884;28;20044;-72
2023/10/27 08:42:57;;;;;;;0.60;0.35;;;18.10;72.30;;;;;;5047929;28;20044;-71
2023/10/27 08:45:23;;;;;;;0.30;0.20;;;18.10;71.60;;;;;;5048714;28;20040;-72
2023/10/27 08:47:50;;;;;;;0.40;0.40;;;18.10;71.60;;;;;;5066063;28;20048;-72
2023/10/27 08:50:16;;;;;;;0.75;0.40;;;18.10;71.60;;;;;;5063820;28;20032;-72
2023/10/27 08:52:42;;;;;;;0.55;0.30;;;18.10;71.50;;;;;;5060219;28;20037;-72
2023/10/27 08:55:09;;;;;;;0.52;0.40;;;18.10;71.50;;;;;;5061417;28;20545;-72
2023/10/27 08:57:34;;;;;;;1.05;0.60;;;18.10;71.50;;;;;;5061725;28;20098;-72
2023/10/27 09:00:00;;;;;;;0.30;0.30;;;18.10;71.40;;;;;;5062428;28;20536;-72
2023/10/27 09:02:30;;;;;;;0.38;0.30;;;18.20;71.40;;;;;;5063930;28;20071;-72
2023/10/27 09:05:06;;;;;;;0.40;0.40;;;18.20;71.50;;;;;;5065927;28;20036;-72
2023/10/27 09:07:38;;;;;;;0.63;0.40;;;18.10;71.40;;;;;;5061849;28;20408;-72
2023/10/27 09:10:06;;;;;;;0.30;0.30;;;18.20;71.50;;;;;;5061182;28;20071;-72
2023/10/27 09:12:34;;;;;;;0.95;0.60;;;18.10;71.40;;;;;;5062630;28;20494;-72
2023/10/27 09:15:06;;;;;;;0.70;0.40;;;18.20;71.40;;;;;;5076993;28;20032;-72
2023/10/27 09:17:55;;;;;;;0.43;0.30;;;18.20;71.50;;;;;;5061805;28;20048;-72
2023/10/27 09:20:21;;;;;;;0.50;0.50;;;18.20;71.40;;;;;;5062076;28;20043;-72
2023/10/27 09:23:06;;;;;;;0.60;0.40;;;18.10;71.40;;;;;;5061133;28;20421;-72
2023/10/27 09:25:32;;;;;;;1.08;0.50;;;18.20;71.40;;;;;;5062270;28;20047;-72
2023/10/27 09:27:59;;;;;;;0.40;0.25;;;18.10;71.50;;;;;;5059257;28;20929;-72
2023/10/27 09:30:29;;;;;;;0.50;0.30;;;18.10;72.30;;;;;;5063011;28;20067;-72
2023/10/27 09:32:55;;;;;;;0.25;0.20;;;18.10;71.50;;;;;;5064477;28;20048;-72
2023/10/27 09:35:22;;;;;;;1.33;0.60;;;18.20;71.40;;;;;;5062397;28;20029;-72
2023/10/27 09:37:48;;;;;;;0.75;0.20;;;18.10;71.40;;;;;;5059984;28;20048;-72
2023/10/27 09:40:15;;;;;;;1.08;0.35;;;18.10;71.40;;;;;;5061073;28;20036;-72
2023/10/27 09:42:41;;;;;;;1.23;0.40;;;18.20;71.50;;;;;;5060749;28;20045;-71
2023/10/27 09:45:14;;;;;;;0.52;0.28;;;18.10;72.30;;;;;;5064449;28;20367;-72
2023/10/27 09:47:47;;;;;;;1.35;0.30;;;18.20;71.50;;;;;;5061848;28;20044;-72
2023/10/27 09:50:21;;;;;;;0.70;0.47;;;18.20;71.50;;;;;;5059935;28;20088;-72
2023/10/27 09:52:48;;;;;;;0.50;0.43;;;18.20;71.60;;;;;;5060849;28;20045;-71
2023/10/27 09:55:13;;;;;;;0.50;0.30;;;18.10;71.40;;;;;;5029607;28;20042;-72
2023/10/27 09:57:41;;;;;;;0.50;0.20;;;18.10;71.50;;;;;;5063666;28;20360;-72
2023/10/27 10:00:08;;;;;;;0.40;0.30;;;18.20;71.50;;;;;;5065337;28;20033;-71
2023/10/27 10:02:35;;;;;;;0.45;0.40;;;18.10;71.40;;;;;;5053800;28;20132;-72
2023/10/27 10:05:00;;;;;;;0.55;0.30;;;18.20;71.40;;;;;;5041185;28;20095;-72
2023/10/27 10:07:33;;;;;;;1.58;0.30;;;18.10;71.50;;;;;;5060279;28;20044;-72
2023/10/27 10:10:17;;;;;;;0.63;0.40;;;18.10;71.50;;;;;;5046372;28;20394;-70
2023/10/27 10:13:12;;;;;;;0.90;0.40;;;18.10;71.60;;;;;;5060834;28;20123;-72
2023/10/27 10:15:41;;;;;;;0.55;0.40;;;18.10;71.50;;;;;;5060647;28;20052;-72
2023/10/27 10:18:25;;;;;;;0.80;0.50;;;18.10;71.50;;;;;;5066448;28;20039;-72
2023/10/27 10:20:57;;;;;;;1.35;0.50;;;18.10;71.50;;;;;;5064789;28;20063;-72
2023/10/27 10:23:44;;;;;;;0.73;0.40;;;18.10;71.60;;;;;;5061622;28;20419;-72
2023/10/27 10:26:10;;;;;;;0.50;0.30;;;18.10;71.50;;;;;;5054584;28;20036;-72
2023/10/27 10:28:36;;;;;;;0.70;0.50;;;18.10;71.40;;;;;;5065719;28;20044;-71
2023/10/27 10:31:11;;;;;;;1.05;0.47;;;18.10;71.50;;;;;;5081694;28;20493;-71
2023/10/27 10:33:48;;;;;;;0.60;0.60;;;18.10;71.50;;;;;;5063432;28;20132;-72
2023/10/27 10:36:22;;;;;;;0.30;0.30;;;18.10;71.60;;;;;;5069064;28;20043;-72
2023/10/27 10:38:55;;;;;;;0.90;0.30;;;18.10;71.70;;;;;;5066316;28;20624;-72
2023/10/27 10:41:21;;;;;;;0.70;0.40;;;18.20;71.80;;;;;;4360264;28;10000670;-72
2023/10/27 10:44:13;;;;;;;1.08;0.50;;;18.10;71.70;;;;;;5063929;28;20055;-72
2023/10/27 10:46:39;;;;;;;0.30;0.30;;;18.10;71.70;;;;;;5059626;28;20105;-72
2023/10/27 10:49:04;;;;;;;2.67;0.70;;;18.20;71.70;;;;;;5048748;28;20044;-72
2023/10/27 10:51:36;;;;;;;0.63;0.40;;;18.10;71.70;;;;;;5057590;28;20403;-72
2023/10/27 10:54:01;;;;;;;0.65;0.47;;;18.10;71.90;;;;;;5065702;28;20071;-72
2023/10/27 10:56:27;;;;;;;1.00;0.45;;;18.10;71.90;;;;;;5059446;28;20522;-72
2023/10/27 10:58:53;;;;;;;0.40;0.32;;;18.10;71.70;;;;;;5031530;28;20099;-72
2023/10/27 11:01:19;;;;;;;1.00;0.60;;;18.10;71.80;;;;;;5066023;28;20064;-72
2023/10/27 11:03:47;;;;;;;1.58;0.40;;;18.10;71.80;;;;;;5062456;28;20537;-72
2023/10/27 11:06:12;;;;;;;0.47;0.30;;;18.10;71.80;;;;;;5064260;28;20041;-72
2023/10/27 11:08:39;;;;;;;0.98;0.50;;;18.10;71.90;;;;;;5061046;28;20047;-72
2023/10/27 11:11:05;;;;;;;1.00;0.52;;;18.20;71.90;;;;;;5059654;28;20131;-72
2023/10/27 11:13:33;;;;;;;0.63;0.38;;;18.10;72.60;;;;;;5059410;28;20078;-72
2023/10/27 11:16:00;;;;;;;0.40;0.38;;;18.10;71.90;;;;;;5062625;28;20064;-72
2023/10/27 11:18:29;;;;;;;0.65;0.40;;;18.10;71.90;;;;;;5065789;28;20127;-72
2023/10/27 11:20:54;;;;;;;0.40;0.38;;;18.10;71.90;;;;;;5063239;28;20379;-72
2023/10/27 11:23:20;;;;;;;0.75;0.50;;;18.10;71.90;;;;;;5028406;28;20036;-72
2023/10/27 11:25:46;;;;;;;0.40;0.40;;;18.10;71.90;;;;;;5060936;28;20053;-72
2023/10/27 11:28:21;;;;;;;0.60;0.43;;;18.10;71.90;;;;;;5065446;28;20040;-73
2023/10/27 11:31:12;;;;;;;0.70;0.60;;;18.10;72.00;;;;;;5066002;28;20045;-72
2023/10/27 11:34:06;;;;;;;0.50;0.45;;;18.10;72.20;;;;;;5061066;28;20582;-72
2023/10/27 11:36:32;;;;;;;1.13;0.52;;;18.20;72.00;;;;;;5049644;28;20047;-72
2023/10/27 11:39:13;;;;;;;0.50;0.40;;;18.20;71.90;;;;;;5065825;28;20119;-72
2023/10/27 11:41:39;;;;;;;1.20;0.52;;;18.20;72.10;;;;;;5053514;28;20044;-72
2023/10/27 11:44:05;;;;;;;1.50;0.57;;;18.10;72.00;;;;;;5062549;28;20053;-72
2023/10/27 11:46:32;;;;;;;0.85;0.68;;;18.20;72.20;;;;;;5063511;28;20590;-72
2023/10/27 11:48:58;;;;;;;0.65;0.50;;;18.10;72.00;;;;;;5062898;28;20120;-72
2023/10/27 11:51:23;;;;;;;0.40;0.30;;;18.20;72.00;;;;;;5065709;28;20128;-72
2023/10/27 11:53:49;;;;;;;0.60;0.50;;;18.20;72.00;;;;;;5065890;28;20036;-72
2023/10/27 11:56:14;;;;;;;0.68;0.32;;;18.20;72.10;;;;;;5064262;28;20040;-72
2023/10/27 11:58:40;;;;;;;0.60;0.60;;;18.20;72.00;;;;;;5063984;28;20470;-72
2023/10/27 12:01:06;;;;;;;0.90;0.60;;;18.20;72.20;;;;;;5065676;28;20071;-72
2023/10/27 12:03:31;;;;;;;0.57;0.55;;;18.20;72.20;;;;;;5047346;28;20043;-72
2023/10/27 12:05:57;;;;;;;0.50;0.40;;;18.20;72.10;;;;;;5048703;28;20041;-72
2023/10/27 12:08:23;;;;;;;0.50;0.47;;;18.10;72.10;;;;;;5060452;28;20047;-72
2023/10/27 12:10:52;;;;;;;0.40;0.30;;;18.20;72.10;;;;;;5061899;28;20048;-72
2023/10/27 12:13:21;;;;;;;0.57;0.40;;;18.10;72.00;;;;;;5064210;28;20035;-72
2023/10/27 12:15:50;;;;;;;1.20;0.63;;;18.10;72.00;;;;;;5062257;28;20510;-72
2023/10/27 12:18:16;;;;;;;0.88;0.30;;;18.20;72.00;;;;;;5064007;28;20182;-72
2023/10/27 12:20:41;;;;;;;1.25;0.77;;;18.10;71.90;;;;;;5047403;28;20570;-73
2023/10/27 12:23:08;;;;;;;1.15;0.57;;;18.20;72.00;;;;;;5063076;28;20533;-72
2023/10/27 12:25:34;;;;;;;0.70;0.50;;;18.20;72.00;;;;;;5063430;28;20040;-72
2023/10/27 12:28:00;;;;;;;0.55;0.40;;;18.20;72.00;;;;;;5061786;28;20044;-72
2023/10/27 12:30:25;;;;;;;2.03;0.55;;;18.10;71.90;;;;;;5064394;28;20193;-72
2023/10/27 12:32:53;;;;;;;0.57;0.30;;;18.20;71.90;;;;;;5073611;28;20021;-72
2023/10/27 12:35:21;;;;;;;1.00;0.50;;;18.20;72.10;;;;;;5047499;28;20426;-72
2023/10/27 12:37:46;;;;;;;0.77;0.40;;;18.20;72.00;;;;;;5063148;28;20066;-72
2023/10/27 12:40:12;;;;;;;0.95;0.43;;;18.20;72.10;;;;;;5060562;28;20040;-72
2023/10/27 12:42:39;;;;;;;0.68;0.50;;;18.20;72.10;;;;;;5061496;28;20037;-72
2023/10/27 12:45:05;;;;;;;0.40;0.30;;;18.20;72.00;;;;;;5065399;28;20146;-72